sensor_id;sensor_type;location;lat;lon;timestamp;pressure;altitude;pressure_sealevel;temperature;humidity
54389;BME280;40975;50.390;8.640;2022-07-30T00:00:42;99184.72;;;16.44;100.00
54389;BME280;40975;50.390;8.640;2022-07-30T00:03:07;99179.75;;;16.41;100.00
54389;BME280;40975;50.390;8.640;2022-07-30T00:05:32;99172.63;;;16.34;100.00
54389;BME280;40975;50.390;8.640;2022-07-30T00:07:58;99162.91;;;16.32;100.00
54389;BME280;40975;50.390;8.640;2022-07-30T00:10:23;99164.47;;;16.27;100.00
54389;BME280;40975;50.390;8.640;2022-07-30T00:12:49;99165.84;;;16.23;100.00
54389;BME280;40975;50.390;8.640;2022-07-30T00:15:15;99161.88;;;16.19;100.00
54389;BME280;40975;50.390;8.640;2022-07-30T00:17:40;99162.78;;;16.11;100.00
54389;BME280;40975;50.390;8.640;2022-07-30T00:20:06;99156.16;;;16.07;100.00
54389;BME280;40975;50.390;8.640;2022-07-30T00:22:32;99157.03;;;15.99;100.00
54389;BME280;40975;50.390;8.640;2022-07-30T00:24:57;99160.28;;;15.94;100.00
54389;BME280;40975;50.390;8.640;2022-07-30T00:27:23;99157.28;;;15.89;100.00
54389;BME280;40975;50.390;8.640;2022-07-30T00:29:48;99158.28;;;15.88;100.00
54389;BME280;40975;50.390;8.640;2022-07-30T00:32:14;99151.16;;;15.80;100.00
54389;BME280;40975;50.390;8.640;2022-07-30T00:34:40;99149.19;;;15.74;100.00
54389;BME280;40975;50.390;8.640;2022-07-30T00:37:05;99141.56;;;15.63;100.00
54389;BME280;40975;50.390;8.640;2022-07-30T00:39:30;99153.00;;;15.57;100.00
54389;BME280;40975;50.390;8.640;2022-07-30T00:42:01;99139.50;;;15.50;100.00
54389;BME280;40975;50.390;8.640;2022-07-30T00:44:28;99150.19;;;15.50;100.00
54389;BME280;40975;50.390;8.640;2022-07-30T00:46:54;99139.38;;;15.43;100.00
54389;BME280;40975;50.390;8.640;2022-07-30T00:49:19;99135.09;;;15.34;100.00
54389;BME280;40975;50.390;8.640;2022-07-30T00:51:45;99140.50;;;15.26;100.00
54389;BME280;40975;50.390;8.640;2022-07-30T00:54:11;99137.88;;;15.17;100.00
54389;BME280;40975;50.390;8.640;2022-07-30T00:56:36;99132.06;;;15.14;100.00
54389;BME280;40975;50.390;8.640;2022-07-30T00:59:02;99131.63;;;15.02;100.00
54389;BME280;40975;50.390;8.640;2022-07-30T01:01:27;99131.00;;;14.91;100.00
54389;BME280;40975;50.390;8.640;2022-07-30T01:03:53;99122.84;;;14.85;100.00
54389;BME280;40975;50.390;8.640;2022-07-30T01:06:18;99117.19;;;14.80;100.00
54389;BME280;40975;50.390;8.640;2022-07-30T01:08:44;99114.88;;;14.76;100.00
54389;BME280;40975;50.390;8.640;2022-07-30T01:11:10;99115.38;;;14.64;100.00
54389;BME280;40975;50.390;8.640;2022-07-30T01:13:41;99118.44;;;14.52;100.00
54389;BME280;40975;50.390;8.640;2022-07-30T01:16:07;99112.59;;;14.49;100.00
54389;BME280;40975;50.390;8.640;2022-07-30T01:18:33;99115.78;;;14.52;100.00
54389;BME280;40975;50.390;8.640;2022-07-30T01:21:23;99133.28;;;14.55;100.00
54389;BME280;40975;50.390;8.640;2022-07-30T01:23:57;99128.28;;;14.52;100.00
54389;BME280;40975;50.390;8.640;2022-07-30T01:26:25;99127.31;;;14.44;100.00
54389;BME280;40975;50.390;8.640;2022-07-30T01:28:53;99121.31;;;14.42;100.00
54389;BME280;40975;50.390;8.640;2022-07-30T01:31:22;99119.84;;;14.32;100.00
54389;BME280;40975;50.390;8.640;2022-07-30T01:33:49;99124.81;;;14.35;100.00
54389;BME280;40975;50.390;8.640;2022-07-30T01:36:17;99118.31;;;14.37;100.00
54389;BME280;40975;50.390;8.640;2022-07-30T01:38:46;99119.97;;;14.38;100.00
54389;BME280;40975;50.390;8.640;2022-07-30T01:41:13;99125.81;;;14.34;100.00
54389;BME280;40975;50.390;8.640;2022-07-30T01:43:40;99124.03;;;14.26;100.00
54389;BME280;40975;50.390;8.640;2022-07-30T01:46:06;99121.19;;;14.19;100.00
54389;BME280;40975;50.390;8.640;2022-07-30T01:48:38;99119.72;;;14.17;100.00
54389;BME280;40975;50.390;8.640;2022-07-30T01:51:05;99129.34;;;14.18;100.00
54389;BME280;40975;50.390;8.640;2022-07-30T01:53:35;99130.53;;;14.15;100.00
54389;BME280;40975;50.390;8.640;2022-07-30T01:56:02;99135.38;;;14.11;100.00
54389;BME280;40975;50.390;8.640;2022-07-30T01:58:30;99127.88;;;14.07;100.00
54389;BME280;40975;50.390;8.640;2022-07-30T02:01:04;99132.91;;;14.10;100.00
54389;BME280;40975;50.390;8.640;2022-07-30T02:03:30;99140.53;;;14.13;100.00
54389;BME280;40975;50.390;8.640;2022-07-30T02:06:12;99145.72;;;14.14;100.00
54389;BME280;40975;50.390;8.640;2022-07-30T02:08:47;99141.22;;;14.15;100.00
54389;BME280;40975;50.390;8.640;2022-07-30T02:11:17;99141.03;;;14.08;100.00
54389;BME280;40975;50.390;8.640;2022-07-30T02:14:12;99142.56;;;14.03;100.00
54389;BME280;40975;50.390;8.640;2022-07-30T02:16:39;99141.91;;;14.01;100.00
54389;BME280;40975;50.390;8.640;2022-07-30T02:19:12;99144.91;;;13.97;100.00
54389;BME280;40975;50.390;8.640;2022-07-30T02:21:40;99144.09;;;13.97;100.00
54389;BME280;40975;50.390;8.640;2022-07-30T02:24:11;99143.22;;;13.96;100.00
54389;BME280;40975;50.390;8.640;2022-07-30T02:26:37;99142.06;;;13.99;100.00
54389;BME280;40975;50.390;8.640;2022-07-30T02:29:05;99143.22;;;13.96;100.00
54389;BME280;40975;50.390;8.640;2022-07-30T02:31:33;99140.38;;;13.98;100.00
54389;BME280;40975;50.390;8.640;2022-07-30T02:34:03;99137.56;;;13.99;100.00
54389;BME280;40975;50.390;8.640;2022-07-30T02:36:30;99138.41;;;14.00;100.00
54389;BME280;40975;50.390;8.640;2022-07-30T02:38:57;99143.59;;;14.02;100.00
54389;BME280;40975;50.390;8.640;2022-07-30T02:41:26;99139.72;;;14.04;100.00
54389;BME280;40975;50.390;8.640;2022-07-30T02:43:52;99142.25;;;13.97;100.00
54389;BME280;40975;50.390;8.640;2022-07-30T02:46:21;99140.38;;;13.98;100.00
54389;BME280;40975;50.390;8.640;2022-07-30T02:49:06;99141.41;;;13.89;100.00
54389;BME280;40975;50.390;8.640;2022-07-30T02:51:35;99140.09;;;13.76;100.00
54389;BME280;40975;50.390;8.640;2022-07-30T02:54:02;99140.91;;;13.77;100.00
54389;BME280;40975;50.390;8.640;2022-07-30T02:56:30;99141.91;;;13.76;100.00
54389;BME280;40975;50.390;8.640;2022-07-30T02:58:57;99151.75;;;13.75;100.00
54389;BME280;40975;50.390;8.640;2022-07-30T03:01:24;99146.44;;;13.67;100.00
54389;BME280;40975;50.390;8.640;2022-07-30T03:03:51;99141.91;;;13.67;100.00
54389;BME280;40975;50.390;8.640;2022-07-30T03:06:18;99147.06;;;13.69;100.00
54389;BME280;40975;50.390;8.640;2022-07-30T03:08:45;99151.09;;;13.73;100.00
54389;BME280;40975;50.390;8.640;2022-07-30T03:11:12;99150.22;;;13.73;100.00
54389;BME280;40975;50.390;8.640;2022-07-30T03:13:39;99153.06;;;13.79;100.00
54389;BME280;40975;50.390;8.640;2022-07-30T03:16:09;99150.25;;;13.81;100.00
54389;BME280;40975;50.390;8.640;2022-07-30T03:18:36;99152.91;;;13.89;100.00
54389;BME280;40975;50.390;8.640;2022-07-30T03:21:05;99141.75;;;13.94;100.00
54389;BME280;40975;50.390;8.640;2022-07-30T03:23:33;99153.22;;;14.03;100.00
54389;BME280;40975;50.390;8.640;2022-07-30T03:26:03;99158.06;;;13.99;100.00
54389;BME280;40975;50.390;8.640;2022-07-30T03:28:31;99154.09;;;13.95;100.00
54389;BME280;40975;50.390;8.640;2022-07-30T03:30:57;99171.59;;;13.97;100.00
54389;BME280;40975;50.390;8.640;2022-07-30T03:33:23;99171.28;;;13.92;100.00
54389;BME280;40975;50.390;8.640;2022-07-30T03:35:50;99168.75;;;13.91;100.00
54389;BME280;40975;50.390;8.640;2022-07-30T03:38:17;99166.91;;;13.83;100.00
54389;BME280;40975;50.390;8.640;2022-07-30T03:40:44;99170.06;;;13.78;100.00
54389;BME280;40975;50.390;8.640;2022-07-30T03:43:10;99168.25;;;13.79;100.00
54389;BME280;40975;50.390;8.640;2022-07-30T03:45:40;99168.75;;;13.82;100.00
54389;BME280;40975;50.390;8.640;2022-07-30T03:48:08;99172.25;;;13.83;100.00
54389;BME280;40975;50.390;8.640;2022-07-30T03:50:35;99174.75;;;13.84;100.00
54389;BME280;40975;50.390;8.640;2022-07-30T03:53:05;99170.91;;;13.87;100.00
54389;BME280;40975;50.390;8.640;2022-07-30T03:55:37;99167.75;;;13.83;100.00
54389;BME280;40975;50.390;8.640;2022-07-30T03:58:25;99170.25;;;13.77;100.00
54389;BME280;40975;50.390;8.640;2022-07-30T04:00:50;99168.06;;;13.80;100.00
54389;BME280;40975;50.390;8.640;2022-07-30T04:03:26;99179.25;;;13.84;100.00
54389;BME280;40975;50.390;8.640;2022-07-30T04:05:54;99177.06;;;13.88;100.00
54389;BME280;40975;50.390;8.640;2022-07-30T04:08:20;99186.59;;;13.90;100.00
54389;BME280;40975;50.390;8.640;2022-07-30T04:10:46;99182.94;;;13.91;100.00
54389;BME280;40975;50.390;8.640;2022-07-30T04:13:30;99192.25;;;13.95;100.00
54389;BME280;40975;50.390;8.640;2022-07-30T04:18:42;99185.25;;;14.03;100.00
54389;BME280;40975;50.390;8.640;2022-07-30T04:21:09;99197.44;;;14.05;100.00
54389;BME280;40975;50.390;8.640;2022-07-30T04:23:38;99199.59;;;14.18;100.00
54389;BME280;40975;50.390;8.640;2022-07-30T04:28:33;99203.25;;;14.25;100.00
54389;BME280;40975;50.390;8.640;2022-07-30T04:30:59;99199.06;;;14.31;100.00
54389;BME280;40975;50.390;8.640;2022-07-30T04:33:25;99203.94;;;14.27;100.00
54389;BME280;40975;50.390;8.640;2022-07-30T04:36:10;99210.25;;;14.26;100.00
54389;BME280;40975;50.390;8.640;2022-07-30T04:38:36;99214.09;;;14.32;100.00
54389;BME280;40975;50.390;8.640;2022-07-30T04:41:02;99214.94;;;14.41;100.00
54389;BME280;40975;50.390;8.640;2022-07-30T04:43:35;99211.91;;;14.52;100.00
54389;BME280;40975;50.390;8.640;2022-07-30T04:46:00;99214.56;;;14.60;100.00
54389;BME280;40975;50.390;8.640;2022-07-30T04:48:27;99221.22;;;14.73;100.00
54389;BME280;40975;50.390;8.640;2022-07-30T04:51:11;99231.38;;;14.86;100.00
54389;BME280;40975;50.390;8.640;2022-07-30T04:53:39;99234.84;;;14.95;100.00
54389;BME280;40975;50.390;8.640;2022-07-30T04:56:08;99238.16;;;15.05;100.00
54389;BME280;40975;50.390;8.640;2022-07-30T04:58:35;99235.81;;;15.10;100.00
54389;BME280;40975;50.390;8.640;2022-07-30T05:01:02;99234.16;;;15.09;100.00
54389;BME280;40975;50.390;8.640;2022-07-30T05:03:30;99246.94;;;15.22;100.00
54389;BME280;40975;50.390;8.640;2022-07-30T05:05:59;99245.47;;;15.19;100.00
54389;BME280;40975;50.390;8.640;2022-07-30T05:08:29;99248.13;;;15.19;100.00
54389;BME280;40975;50.390;8.640;2022-07-30T05:10:54;99245.47;;;15.19;100.00
54389;BME280;40975;50.390;8.640;2022-07-30T05:13:20;99245.94;;;15.23;100.00
54389;BME280;40975;50.390;8.640;2022-07-30T05:15:46;99247.78;;;15.22;100.00
54389;BME280;40975;50.390;8.640;2022-07-30T05:18:15;99250.44;;;15.22;100.00
54389;BME280;40975;50.390;8.640;2022-07-30T05:20:42;99248.44;;;15.24;100.00
54389;BME280;40975;50.390;8.640;2022-07-30T05:23:23;99252.09;;;15.32;100.00
54389;BME280;40975;50.390;8.640;2022-07-30T05:25:58;99256.03;;;15.44;100.00
54389;BME280;40975;50.390;8.640;2022-07-30T05:28:32;99251.78;;;15.58;100.00
54389;BME280;40975;50.390;8.640;2022-07-30T05:31:00;99251.38;;;15.69;100.00
54389;BME280;40975;50.390;8.640;2022-07-30T05:33:26;99252.16;;;15.78;100.00
54389;BME280;40975;50.390;8.640;2022-07-30T05:35:53;99255.97;;;15.92;100.00
54389;BME280;40975;50.390;8.640;2022-07-30T05:38:19;99255.19;;;16.07;100.00
54389;BME280;40975;50.390;8.640;2022-07-30T05:41:03;99260.22;;;16.25;100.00
54389;BME280;40975;50.390;8.640;2022-07-30T05:43:46;99258.97;;;16.36;100.00
54389;BME280;40975;50.390;8.640;2022-07-30T05:46:12;99261.19;;;16.47;100.00
54389;BME280;40975;50.390;8.640;2022-07-30T05:48:37;99264.41;;;16.66;100.00
54389;BME280;40975;50.390;8.640;2022-07-30T05:51:04;99264.72;;;17.01;100.00
54389;BME280;40975;50.390;8.640;2022-07-30T05:53:29;99256.31;;;17.70;100.00
54389;BME280;40975;50.390;8.640;2022-07-30T05:56:04;99262.91;;;18.33;100.00
54389;BME280;40975;50.390;8.640;2022-07-30T05:59:05;99260.13;;;19.05;100.00
54389;BME280;40975;50.390;8.640;2022-07-30T06:01:50;99265.97;;;19.64;100.00
54389;BME280;40975;50.390;8.640;2022-07-30T06:04:21;99262.78;;;20.02;100.00
54389;BME280;40975;50.390;8.640;2022-07-30T06:06:52;99265.91;;;20.12;99.78
54389;BME280;40975;50.390;8.640;2022-07-30T06:09:18;99260.84;;;19.76;100.00
54389;BME280;40975;50.390;8.640;2022-07-30T06:11:44;99264.25;;;20.18;99.40
54389;BME280;40975;50.390;8.640;2022-07-30T06:14:09;99259.06;;;20.70;96.66
54389;BME280;40975;50.390;8.640;2022-07-30T06:16:35;99263.31;;;21.25;91.98
54389;BME280;40975;50.390;8.640;2022-07-30T06:19:00;99256.22;;;21.37;90.22
54389;BME280;40975;50.390;8.640;2022-07-30T06:21:37;99267.69;;;21.78;89.80
54389;BME280;40975;50.390;8.640;2022-07-30T06:24:09;99259.63;;;22.61;86.04
54389;BME280;40975;50.390;8.640;2022-07-30T06:26:57;99265.66;;;22.63;84.16
54389;BME280;40975;50.390;8.640;2022-07-30T06:29:23;99261.50;;;23.04;82.38
54389;BME280;40975;50.390;8.640;2022-07-30T06:31:48;99255.78;;;23.31;81.87
54389;BME280;40975;50.390;8.640;2022-07-30T06:34:14;99262.56;;;23.40;82.31
54389;BME280;40975;50.390;8.640;2022-07-30T06:36:41;99262.34;;;23.23;80.14
54389;BME280;40975;50.390;8.640;2022-07-30T06:39:19;99262.16;;;23.18;85.89
54389;BME280;40975;50.390;8.640;2022-07-30T06:41:57;99263.13;;;22.36;87.85
54389;BME280;40975;50.390;8.640;2022-07-30T06:44:26;99270.59;;;21.77;92.10
54389;BME280;40975;50.390;8.640;2022-07-30T06:47:20;99266.91;;;21.12;96.29
54389;BME280;40975;50.390;8.640;2022-07-30T06:49:53;99268.00;;;20.84;95.90
54389;BME280;40975;50.390;8.640;2022-07-30T06:52:18;99272.78;;;20.55;96.91
54389;BME280;40975;50.390;8.640;2022-07-30T06:54:49;99274.84;;;20.60;96.98
54389;BME280;40975;50.390;8.640;2022-07-30T06:57:21;99272.44;;;21.31;93.31
54389;BME280;40975;50.390;8.640;2022-07-30T06:59:48;99263.41;;;22.28;88.14
54389;BME280;40975;50.390;8.640;2022-07-30T07:02:18;99269.63;;;22.60;84.34
54389;BME280;40975;50.390;8.640;2022-07-30T07:05:05;99268.22;;;23.39;78.76
54389;BME280;40975;50.390;8.640;2022-07-30T07:07:33;99257.34;;;23.57;79.07
54389;BME280;40975;50.390;8.640;2022-07-30T07:09:58;99270.75;;;23.34;82.57
54389;BME280;40975;50.390;8.640;2022-07-30T07:12:44;99269.59;;;23.60;78.35
54389;BME280;40975;50.390;8.640;2022-07-30T07:15:10;99278.78;;;24.20;78.61
54389;BME280;40975;50.390;8.640;2022-07-30T07:17:37;99274.63;;;24.72;75.91
54389;BME280;40975;50.390;8.640;2022-07-30T07:20:03;99266.38;;;24.90;73.39
54389;BME280;40975;50.390;8.640;2022-07-30T07:22:39;99280.97;;;25.01;71.54
54389;BME280;40975;50.390;8.640;2022-07-30T07:25:06;99282.50;;;25.09;73.11
54389;BME280;40975;50.390;8.640;2022-07-30T07:27:32;99278.03;;;25.67;70.15
54389;BME280;40975;50.390;8.640;2022-07-30T07:30:03;99282.69;;;26.13;68.17
54389;BME280;40975;50.390;8.640;2022-07-30T07:32:29;99280.31;;;26.67;65.93
54389;BME280;40975;50.390;8.640;2022-07-30T07:34:54;99276.25;;;27.26;62.71
54389;BME280;40975;50.390;8.640;2022-07-30T07:37:20;99277.50;;;27.41;59.20
54389;BME280;40975;50.390;8.640;2022-07-30T07:39:45;99271.44;;;27.56;60.25
54389;BME280;40975;50.390;8.640;2022-07-30T07:42:11;99273.53;;;26.87;58.67
54389;BME280;40975;50.390;8.640;2022-07-30T07:44:38;99279.72;;;26.99;61.31
54389;BME280;40975;50.390;8.640;2022-07-30T07:47:04;99272.53;;;26.93;61.38
54389;BME280;40975;50.390;8.640;2022-07-30T07:49:34;99270.22;;;27.02;59.57
54389;BME280;40975;50.390;8.640;2022-07-30T07:52:00;99264.72;;;27.41;59.14
54389;BME280;40975;50.390;8.640;2022-07-30T07:54:25;99277.53;;;27.63;58.00
54389;BME280;40975;50.390;8.640;2022-07-30T07:56:52;99274.34;;;28.26;54.42
54389;BME280;40975;50.390;8.640;2022-07-30T07:59:25;99275.94;;;28.54;53.23
54389;BME280;40975;50.390;8.640;2022-07-30T08:01:51;99275.50;;;29.16;52.36
54389;BME280;40975;50.390;8.640;2022-07-30T08:04:39;99280.31;;;29.46;51.16
54389;BME280;40975;50.390;8.640;2022-07-30T08:07:10;99271.72;;;29.22;48.47
54389;BME280;40975;50.390;8.640;2022-07-30T08:09:54;99278.31;;;30.26;47.13
54389;BME280;40975;50.390;8.640;2022-07-30T08:12:42;99278.28;;;29.21;47.72
54389;BME280;40975;50.390;8.640;2022-07-30T08:15:26;99271.66;;;29.75;46.82
54389;BME280;40975;50.390;8.640;2022-07-30T08:18:14;99279.78;;;29.50;48.32
54389;BME280;40975;50.390;8.640;2022-07-30T08:20:46;99282.78;;;29.48;46.43
54389;BME280;40975;50.390;8.640;2022-07-30T08:23:14;99286.41;;;29.69;48.12
54389;BME280;40975;50.390;8.640;2022-07-30T08:25:39;99280.75;;;30.84;43.70
54389;BME280;40975;50.390;8.640;2022-07-30T08:28:05;99285.06;;;31.06;42.92
54389;BME280;40975;50.390;8.640;2022-07-30T08:30:30;99279.31;;;31.18;40.66
54389;BME280;40975;50.390;8.640;2022-07-30T08:32:56;99273.19;;;31.37;40.52
54389;BME280;40975;50.390;8.640;2022-07-30T08:35:21;99283.81;;;31.54;41.00
54389;BME280;40975;50.390;8.640;2022-07-30T08:37:47;99290.09;;;32.09;39.08
54389;BME280;40975;50.390;8.640;2022-07-30T08:40:13;99290.63;;;32.76;39.08
54389;BME280;40975;50.390;8.640;2022-07-30T08:42:49;99287.88;;;32.76;38.96
54389;BME280;40975;50.390;8.640;2022-07-30T08:45:16;99292.09;;;31.99;39.99
54389;BME280;40975;50.390;8.640;2022-07-30T08:47:44;99289.63;;;29.56;41.16
54389;BME280;40975;50.390;8.640;2022-07-30T08:50:10;99290.56;;;28.76;44.97
54389;BME280;40975;50.390;8.640;2022-07-30T08:52:47;99290.16;;;29.47;43.97
54389;BME280;40975;50.390;8.640;2022-07-30T08:55:14;99293.00;;;29.89;40.49
54389;BME280;40975;50.390;8.640;2022-07-30T08:57:40;99285.16;;;31.56;39.44
54389;BME280;40975;50.390;8.640;2022-07-30T09:00:06;99292.38;;;32.37;38.08
54389;BME280;40975;50.390;8.640;2022-07-30T09:02:33;99298.50;;;31.02;35.63
54389;BME280;40975;50.390;8.640;2022-07-30T09:05:03;99293.06;;;28.82;41.06
54389;BME280;40975;50.390;8.640;2022-07-30T09:07:31;99304.34;;;27.49;46.14
54389;BME280;40975;50.390;8.640;2022-07-30T09:09:57;99301.31;;;26.38;46.30
54389;BME280;40975;50.390;8.640;2022-07-30T09:12:43;99300.13;;;27.19;45.75
54389;BME280;40975;50.390;8.640;2022-07-30T09:15:19;99303.09;;;29.09;45.24
54389;BME280;40975;50.390;8.640;2022-07-30T09:17:59;99300.94;;;29.16;42.79
54389;BME280;40975;50.390;8.640;2022-07-30T09:20:29;99308.03;;;28.42;43.34
54389;BME280;40975;50.390;8.640;2022-07-30T09:22:58;99294.78;;;27.07;45.56
54389;BME280;40975;50.390;8.640;2022-07-30T09:25:46;99295.34;;;28.26;46.33
54389;BME280;40975;50.390;8.640;2022-07-30T09:28:32;99293.13;;;27.06;49.33
54389;BME280;40975;50.390;8.640;2022-07-30T09:31:14;99294.38;;;29.23;42.99
54389;BME280;40975;50.390;8.640;2022-07-30T09:33:58;99292.06;;;31.48;38.20
54389;BME280;40975;50.390;8.640;2022-07-30T09:36:42;99295.28;;;30.49;38.57
54389;BME280;40975;50.390;8.640;2022-07-30T09:39:30;99305.06;;;28.81;43.88
54389;BME280;40975;50.390;8.640;2022-07-30T09:42:31;99301.78;;;29.27;41.80
54389;BME280;40975;50.390;8.640;2022-07-30T09:45:10;99291.66;;;29.97;41.92
54389;BME280;40975;50.390;8.640;2022-07-30T09:47:39;99295.38;;;28.31;44.33
54389;BME280;40975;50.390;8.640;2022-07-30T09:50:12;99300.53;;;27.50;45.55
54389;BME280;40975;50.390;8.640;2022-07-30T09:52:41;99298.63;;;26.89;47.11
54389;BME280;40975;50.390;8.640;2022-07-30T09:55:07;99296.56;;;26.28;48.65
54389;BME280;40975;50.390;8.640;2022-07-30T09:57:33;99295.94;;;25.80;50.77
54389;BME280;40975;50.390;8.640;2022-07-30T10:00:20;99304.06;;;25.39;51.77
54389;BME280;40975;50.390;8.640;2022-07-30T10:02:54;99296.78;;;25.16;54.07
54389;BME280;40975;50.390;8.640;2022-07-30T10:05:48;99302.94;;;24.76;50.12
54389;BME280;40975;50.390;8.640;2022-07-30T10:08:14;99307.72;;;24.50;54.79
54389;BME280;40975;50.390;8.640;2022-07-30T10:10:41;99309.09;;;24.29;55.10
54389;BME280;40975;50.390;8.640;2022-07-30T10:13:07;99309.28;;;24.03;55.40
54389;BME280;40975;50.390;8.640;2022-07-30T10:15:34;99314.56;;;23.80;56.09
54389;BME280;40975;50.390;8.640;2022-07-30T10:18:03;99313.16;;;23.58;57.61
54389;BME280;40975;50.390;8.640;2022-07-30T10:20:47;99307.59;;;23.53;58.31
54389;BME280;40975;50.390;8.640;2022-07-30T10:23:48;99311.44;;;23.64;60.14
54389;BME280;40975;50.390;8.640;2022-07-30T10:29:22;99309.94;;;24.41;57.17
54389;BME280;40975;50.390;8.640;2022-07-30T10:31:49;99306.09;;;26.99;52.13
54389;BME280;40975;50.390;8.640;2022-07-30T10:34:17;99311.41;;;28.54;49.50
54389;BME280;40975;50.390;8.640;2022-07-30T10:36:51;99300.19;;;30.16;45.13
54389;BME280;40975;50.390;8.640;2022-07-30T10:39:24;99300.44;;;30.86;43.44
54389;BME280;40975;50.390;8.640;2022-07-30T10:42:16;99301.56;;;30.70;42.17
54389;BME280;40975;50.390;8.640;2022-07-30T10:45:18;99306.34;;;29.65;44.54
54389;BME280;40975;50.390;8.640;2022-07-30T10:47:47;99301.63;;;28.96;45.75
54389;BME280;40975;50.390;8.640;2022-07-30T10:50:16;99309.53;;;28.00;45.56
54389;BME280;40975;50.390;8.640;2022-07-30T10:52:49;99295.66;;;26.91;47.99
54389;BME280;40975;50.390;8.640;2022-07-30T10:58:04;99293.66;;;26.18;52.07
54389;BME280;40975;50.390;8.640;2022-07-30T11:00:34;99302.63;;;26.18;52.76
54389;BME280;40975;50.390;8.640;2022-07-30T11:03:14;99299.31;;;25.87;50.35
54389;BME280;40975;50.390;8.640;2022-07-30T11:05:40;99300.03;;;25.83;50.88
54389;BME280;40975;50.390;8.640;2022-07-30T11:10:52;99292.41;;;28.05;45.44
54389;BME280;40975;50.390;8.640;2022-07-30T11:13:17;99301.16;;;28.34;44.13
54389;BME280;40975;50.390;8.640;2022-07-30T11:15:59;99288.75;;;28.87;45.50
54389;BME280;40975;50.390;8.640;2022-07-30T11:18:25;99295.94;;;29.61;43.81
54389;BME280;40975;50.390;8.640;2022-07-30T11:23:39;99288.13;;;29.96;40.54
54389;BME280;40975;50.390;8.640;2022-07-30T11:26:04;99283.19;;;29.93;40.24
54389;BME280;40975;50.390;8.640;2022-07-30T11:28:35;99295.63;;;29.53;40.11
54389;BME280;40975;50.390;8.640;2022-07-30T11:31:01;99284.03;;;29.93;40.40
54389;BME280;40975;50.390;8.640;2022-07-30T11:33:27;99281.31;;;30.04;40.70
54389;BME280;40975;50.390;8.640;2022-07-30T11:36:07;99280.09;;;29.05;38.22
54389;BME280;40975;50.390;8.640;2022-07-30T11:38:52;99269.00;;;28.42;40.18
54389;BME280;40975;50.390;8.640;2022-07-30T11:41:17;99277.53;;;28.83;41.33
54389;BME280;40975;50.390;8.640;2022-07-30T11:43:43;99267.63;;;28.77;40.69
54389;BME280;40975;50.390;8.640;2022-07-30T11:46:18;99275.53;;;28.73;41.54
54389;BME280;40975;50.390;8.640;2022-07-30T11:48:55;99279.50;;;29.51;44.17
54389;BME280;40975;50.390;8.640;2022-07-30T11:51:20;99274.16;;;29.92;41.67
54389;BME280;40975;50.390;8.640;2022-07-30T11:54:03;99275.34;;;29.33;39.78
54389;BME280;40975;50.390;8.640;2022-07-30T11:56:29;99267.03;;;29.91;40.97
54389;BME280;40975;50.390;8.640;2022-07-30T11:59:05;99277.41;;;29.74;40.79
54389;BME280;40975;50.390;8.640;2022-07-30T12:01:32;99271.72;;;30.06;41.08
54389;BME280;40975;50.390;8.640;2022-07-30T12:04:02;99274.09;;;29.77;38.79
54389;BME280;40975;50.390;8.640;2022-07-30T12:06:28;99269.00;;;30.22;41.06
54389;BME280;40975;50.390;8.640;2022-07-30T12:08:56;99268.91;;;29.75;38.09
54389;BME280;40975;50.390;8.640;2022-07-30T12:11:22;99272.41;;;29.55;40.80
54389;BME280;40975;50.390;8.640;2022-07-30T12:13:58;99271.13;;;29.84;40.61
54389;BME280;40975;50.390;8.640;2022-07-30T12:16:25;99270.47;;;29.51;40.74
54389;BME280;40975;50.390;8.640;2022-07-30T12:18:50;99256.69;;;29.30;40.54
54389;BME280;40975;50.390;8.640;2022-07-30T12:21:17;99254.38;;;29.54;40.81
54389;BME280;40975;50.390;8.640;2022-07-30T12:24:03;99257.94;;;29.65;41.00
54389;BME280;40975;50.390;8.640;2022-07-30T12:26:34;99258.19;;;29.53;41.54
54389;BME280;40975;50.390;8.640;2022-07-30T12:29:01;99255.31;;;29.27;41.04
54389;BME280;40975;50.390;8.640;2022-07-30T12:31:29;99253.34;;;29.12;40.43
54389;BME280;40975;50.390;8.640;2022-07-30T12:33:54;99243.47;;;29.01;40.13
54389;BME280;40975;50.390;8.640;2022-07-30T12:36:34;99253.75;;;28.83;40.48
54389;BME280;40975;50.390;8.640;2022-07-30T12:39:00;99250.00;;;29.00;40.68
54389;BME280;40975;50.390;8.640;2022-07-30T12:41:46;99249.22;;;28.62;40.55
54389;BME280;40975;50.390;8.640;2022-07-30T12:44:43;99251.06;;;28.89;40.54
54389;BME280;40975;50.390;8.640;2022-07-30T12:47:19;99247.56;;;28.98;41.25
54389;BME280;40975;50.390;8.640;2022-07-30T12:49:44;99243.38;;;29.39;41.57
54389;BME280;40975;50.390;8.640;2022-07-30T12:52:28;99244.69;;;29.31;39.13
54389;BME280;40975;50.390;8.640;2022-07-30T12:55:07;99240.97;;;29.53;39.63
54389;BME280;40975;50.390;8.640;2022-07-30T12:58:02;99233.41;;;29.12;40.19
54389;BME280;40975;50.390;8.640;2022-07-30T13:02:53;99228.91;;;29.43;37.64
54389;BME280;40975;50.390;8.640;2022-07-30T13:05:19;99222.13;;;28.88;37.85
54389;BME280;40975;50.390;8.640;2022-07-30T13:07:52;99227.22;;;28.03;39.90
54389;BME280;40975;50.390;8.640;2022-07-30T13:10:17;99232.22;;;28.49;41.63
54389;BME280;40975;50.390;8.640;2022-07-30T13:12:46;99234.69;;;28.51;39.87
54389;BME280;40975;50.390;8.640;2022-07-30T13:15:21;99218.66;;;28.60;41.31
54389;BME280;40975;50.390;8.640;2022-07-30T13:17:47;99222.91;;;28.88;40.81
54389;BME280;40975;50.390;8.640;2022-07-30T13:20:16;99229.84;;;29.11;40.68
54389;BME280;40975;50.390;8.640;2022-07-30T13:22:42;99224.94;;;29.08;38.88
54389;BME280;40975;50.390;8.640;2022-07-30T13:25:08;99230.31;;;28.93;38.11
54389;BME280;40975;50.390;8.640;2022-07-30T13:27:34;99237.00;;;29.23;37.67
54389;BME280;40975;50.390;8.640;2022-07-30T13:30:01;99239.41;;;29.09;37.28
54389;BME280;40975;50.390;8.640;2022-07-30T13:32:26;99234.56;;;29.21;37.52